Time;durP1;ratioP1;P1;durP2;ratioP2;P2;SDS_P1;SDS_P2;PMS_P1;PMS_P2;Temp;Humidity;BMP_temperature;BMP_pressure;BME280_temperature;BME280_humidity;BME280_pressure;Samples;Min_cycle;Max_cycle;Signal;HPM_P1;HPM_P2
2023/12/19 00:00:39;;;;;;;6.18;3.80;;;11.70;97.20;;;;;;5032046;28;20025;-44
2023/12/19 00:03:05;;;;;;;6.57;4.20;;;11.70;97.30;;;;;;5031921;28;20066;-44
2023/12/19 00:05:30;;;;;;;6.40;4.20;;;11.70;97.30;;;;;;5031848;28;20028;-44
2023/12/19 00:07:56;;;;;;;6.82;4.22;;;11.60;97.30;;;;;;5031692;28;20025;-43
2023/12/19 00:10:21;;;;;;;7.47;4.15;;;11.60;97.30;;;;;;5031563;28;20025;-44
2023/12/19 00:12:47;;;;;;;7.28;3.78;;;11.60;97.40;;;;;;5031895;28;20027;-44
2023/12/19 00:15:13;;;;;;;6.10;3.92;;;11.60;97.40;;;;;;5031986;28;20483;-43
2023/12/19 00:17:39;;;;;;;5.63;3.95;;;11.60;97.40;;;;;;5031533;28;20083;-43
2023/12/19 00:20:05;;;;;;;6.07;4.07;;;11.60;97.50;;;;;;5031624;28;20033;-44
2023/12/19 00:22:31;;;;;;;5.72;3.88;;;11.50;97.50;;;;;;5031563;28;20036;-43
2023/12/19 00:24:56;;;;;;;5.38;4.03;;;11.50;97.50;;;;;;5031458;28;20025;-44
2023/12/19 00:27:22;;;;;;;6.07;3.90;;;11.50;97.50;;;;;;5031408;28;20022;-43
2023/12/19 00:29:48;;;;;;;5.25;3.55;;;11.50;97.60;;;;;;5031645;28;20068;-44
2023/12/19 00:32:13;;;;;;;6.18;4.20;;;11.50;97.60;;;;;;5030054;28;20474;-44
2023/12/19 00:34:39;;;;;;;6.32;3.92;;;11.50;97.60;;;;;;5031502;28;20293;-44
2023/12/19 00:37:05;;;;;;;5.53;3.50;;;11.40;97.50;;;;;;5032055;28;20029;-44
2023/12/19 00:39:30;;;;;;;6.57;3.88;;;11.40;97.60;;;;;;5031761;28;20025;-43
2023/12/19 00:41:56;;;;;;;5.50;3.42;;;11.40;97.60;;;;;;5031233;28;20060;-43
2023/12/19 00:44:21;;;;;;;5.65;3.55;;;11.40;97.60;;;;;;5031325;28;20433;-44
2023/12/19 00:46:47;;;;;;;5.35;3.58;;;11.40;97.60;;;;;;5031234;28;20013;-43
2023/12/19 00:49:13;;;;;;;6.55;3.72;;;11.40;97.60;;;;;;5031160;28;20455;-44
2023/12/19 00:51:38;;;;;;;5.90;3.60;;;11.40;97.60;;;;;;5031645;28;20418;-44
2023/12/19 00:54:04;;;;;;;6.93;3.67;;;11.30;97.60;;;;;;5031122;28;20076;-44
2023/12/19 00:56:32;;;;;;;6.32;3.50;;;11.30;97.60;;;;;;5031732;28;20476;-43
2023/12/19 00:58:58;;;;;;;5.80;3.40;;;11.30;98.00;;;;;;5031187;28;20060;-44
2023/12/19 01:01:24;;;;;;;5.28;3.45;;;11.30;97.70;;;;;;5031530;28;20029;-44
2023/12/19 01:03:50;;;;;;;4.30;3.20;;;11.30;97.70;;;;;;5034284;28;20095;-43
2023/12/19 01:06:16;;;;;;;5.35;3.42;;;11.20;97.70;;;;;;5035210;28;20058;-44
2023/12/19 01:08:41;;;;;;;4.40;3.28;;;11.30;97.80;;;;;;5035074;28;20025;-44
2023/12/19 01:11:09;;;;;;;4.45;3.28;;;11.30;97.80;;;;;;5035087;28;20438;-43
2023/12/19 01:13:38;;;;;;;5.15;3.00;;;11.30;97.80;;;;;;5035116;28;20029;-44
2023/12/19 01:16:04;;;;;;;5.88;3.30;;;11.20;97.80;;;;;;5034993;28;20483;-44
2023/12/19 01:18:30;;;;;;;4.22;2.95;;;11.20;97.80;;;;;;5034987;28;20516;-44
2023/12/19 01:20:55;;;;;;;4.80;3.20;;;11.20;97.80;;;;;;5035295;28;20025;-44
2023/12/19 01:23:21;;;;;;;5.13;3.00;;;11.20;97.80;;;;;;5034773;28;20453;-44
2023/12/19 01:25:47;;;;;;;5.25;3.25;;;11.20;97.90;;;;;;5036052;28;20387;-44
2023/12/19 01:28:14;;;;;;;4.22;2.92;;;11.20;97.90;;;;;;5034837;28;20032;-47
2023/12/19 01:30:40;;;;;;;4.90;3.10;;;11.20;98.20;;;;;;5034706;28;20079;-43
2023/12/19 01:33:08;;;;;;;5.43;3.55;;;11.20;97.90;;;;;;5034763;28;20041;-43
2023/12/19 01:35:33;;;;;;;4.85;3.25;;;11.20;97.90;;;;;;5034664;28;20025;-44
2023/12/19 01:37:59;;;;;;;5.32;3.00;;;11.20;97.90;;;;;;5034481;28;20021;-44
2023/12/19 01:40:28;;;;;;;4.65;2.97;;;11.10;97.90;;;;;;5034538;28;20104;-44
2023/12/19 01:42:54;;;;;;;4.80;3.15;;;11.10;97.90;;;;;;5035319;28;20479;-44
2023/12/19 01:45:22;;;;;;;4.78;3.25;;;11.10;97.90;;;;;;5034891;28;20038;-44
2023/12/19 01:47:47;;;;;;;4.90;3.50;;;11.10;97.90;;;;;;5034335;28;20104;-44
2023/12/19 01:50:17;;;;;;;5.15;3.15;;;11.10;98.00;;;;;;5034244;28;20100;-43
2023/12/19 01:52:45;;;;;;;4.65;3.25;;;11.10;98.00;;;;;;5034517;28;20422;-44
2023/12/19 01:55:12;;;;;;;4.93;3.10;;;11.10;98.00;;;;;;5034310;28;20383;-44
2023/12/19 01:57:38;;;;;;;4.25;2.67;;;11.10;98.00;;;;;;5034153;28;20374;-44
2023/12/19 02:00:05;;;;;;;4.95;3.13;;;11.10;98.00;;;;;;5034263;28;20029;-44
2023/12/19 02:02:31;;;;;;;5.05;3.20;;;11.10;98.00;;;;;;5034097;28;20033;-44
2023/12/19 02:04:58;;;;;;;4.93;3.10;;;11.00;98.00;;;;;;5034357;28;20383;-44
2023/12/19 02:07:23;;;;;;;4.68;3.17;;;11.10;98.00;;;;;;5034670;28;20026;-44
2023/12/19 02:09:51;;;;;;;8.20;3.10;;;11.00;98.00;;;;;;5034087;28;20052;-44
2023/12/19 02:12:17;;;;;;;5.10;3.50;;;11.00;98.00;;;;;;5034088;28;20037;-44
2023/12/19 02:14:44;;;;;;;5.85;3.30;;;11.00;98.00;;;;;;5033657;28;20101;-44
2023/12/19 02:17:11;;;;;;;4.70;3.08;;;11.00;98.00;;;;;;5034083;28;20523;-43
2023/12/19 02:19:48;;;;;;;4.65;2.95;;;11.00;98.00;;;;;;5033942;28;20030;-43
2023/12/19 02:22:13;;;;;;;4.00;3.03;;;11.00;98.10;;;;;;5034758;28;20064;-43
2023/12/19 02:24:40;;;;;;;4.78;2.97;;;11.00;98.10;;;;;;5035151;28;20026;-44
2023/12/19 02:27:06;;;;;;;4.57;3.03;;;11.00;98.10;;;;;;5033876;28;20112;-44
2023/12/19 02:29:32;;;;;;;4.47;2.90;;;11.00;98.10;;;;;;5033672;28;20262;-43
2023/12/19 02:31:58;;;;;;;5.78;3.40;;;11.00;98.10;;;;;;5033503;28;20066;-44
2023/12/19 02:34:24;;;;;;;4.50;2.90;;;11.00;98.10;;;;;;5033889;28;20029;-44
2023/12/19 02:36:50;;;;;;;4.05;2.95;;;10.90;98.10;;;;;;5033842;28;20026;-44
2023/12/19 02:39:16;;;;;;;3.88;2.50;;;10.90;98.10;;;;;;5033670;28;20032;-44
2023/12/19 02:41:42;;;;;;;5.28;3.00;;;10.90;98.10;;;;;;5033361;28;20488;-44
2023/12/19 02:44:07;;;;;;;5.25;2.92;;;10.90;98.10;;;;;;5033427;28;20100;-44
2023/12/19 02:46:33;;;;;;;3.75;2.83;;;10.90;98.10;;;;;;5033214;28;20022;-44
2023/12/19 02:48:59;;;;;;;4.80;3.25;;;10.90;98.10;;;;;;5033310;28;20044;-45
2023/12/19 02:51:25;;;;;;;5.60;3.30;;;10.90;98.20;;;;;;5033241;28;20049;-44
2023/12/19 02:53:52;;;;;;;4.38;3.00;;;10.90;98.10;;;;;;5033395;28;20021;-44
2023/12/19 02:56:17;;;;;;;4.85;2.90;;;10.90;98.10;;;;;;5033163;28;20036;-44
2023/12/19 02:58:43;;;;;;;3.90;2.70;;;10.90;98.10;;;;;;5032990;28;20104;-43
2023/12/19 03:01:09;;;;;;;5.72;3.20;;;10.90;98.10;;;;;;5032819;28;20021;-44
2023/12/19 03:03:35;;;;;;;5.88;3.25;;;10.90;98.10;;;;;;5033138;28;20551;-44
2023/12/19 03:06:00;;;;;;;4.20;2.90;;;10.90;98.10;;;;;;5033343;28;20030;-44
2023/12/19 03:08:27;;;;;;;5.32;2.95;;;10.90;98.20;;;;;;5032927;28;20053;-43
2023/12/19 03:10:52;;;;;;;3.72;2.55;;;10.90;98.20;;;;;;5032940;28;20038;-44
2023/12/19 03:13:18;;;;;;;3.53;2.55;;;10.90;98.20;;;;;;5032897;28;20028;-44
2023/12/19 03:15:44;;;;;;;4.65;2.90;;;10.80;98.10;;;;;;5032725;28;20025;-44
2023/12/19 03:18:09;;;;;;;4.68;2.83;;;10.80;98.20;;;;;;5033017;28;20030;-44
2023/12/19 03:20:35;;;;;;;4.30;2.88;;;10.90;98.20;;;;;;5032631;28;20387;-44
2023/12/19 03:23:02;;;;;;;3.88;2.85;;;10.80;98.20;;;;;;5032580;28;20076;-44
2023/12/19 03:25:28;;;;;;;4.65;3.10;;;10.80;98.20;;;;;;5032340;28;20029;-44
2023/12/19 03:27:53;;;;;;;3.85;2.65;;;10.90;98.20;;;;;;5032484;28;20033;-44
2023/12/19 03:30:19;;;;;;;4.20;2.60;;;10.80;98.20;;;;;;5032538;28;20483;-44
2023/12/19 03:32:45;;;;;;;5.78;3.00;;;10.80;98.20;;;;;;5032556;28;20018;-41
2023/12/19 03:35:12;;;;;;;4.07;2.65;;;10.80;98.20;;;;;;5032481;28;20082;-44
2023/12/19 03:37:37;;;;;;;6.53;2.60;;;10.80;98.20;;;;;;5033033;28;20462;-44
2023/12/19 03:40:04;;;;;;;4.25;2.55;;;10.80;98.50;;;;;;5032448;28;20056;-44
2023/12/19 03:42:30;;;;;;;5.10;3.13;;;10.80;98.20;;;;;;5032617;28;20602;-44
2023/12/19 03:44:56;;;;;;;5.03;2.83;;;10.80;98.20;;;;;;5032494;28;20030;-44
2023/12/19 03:47:21;;;;;;;4.22;2.70;;;10.80;98.20;;;;;;5032789;28;20431;-43
2023/12/19 03:49:47;;;;;;;3.60;2.45;;;10.80;98.20;;;;;;5032214;28;20097;-44
2023/12/19 03:52:13;;;;;;;3.92;2.55;;;10.80;98.20;;;;;;5032289;28;20080;-44
2023/12/19 03:54:39;;;;;;;3.78;2.70;;;10.80;98.20;;;;;;5032069;28;20383;-44
2023/12/19 03:57:05;;;;;;;4.05;2.40;;;10.80;98.20;;;;;;5031990;28;20037;-44
2023/12/19 03:59:30;;;;;;;4.15;2.50;;;10.70;98.20;;;;;;5032329;28;20029;-44
2023/12/19 04:01:58;;;;;;;5.75;2.80;;;10.80;98.20;;;;;;5031989;28;20113;-44
2023/12/19 04:04:24;;;;;;;3.83;2.40;;;10.70;98.20;;;;;;5031851;28;20571;-44
2023/12/19 04:06:50;;;;;;;4.47;2.40;;;10.80;98.20;;;;;;5030495;28;20140;-44
2023/12/19 04:09:16;;;;;;;2.90;2.20;;;10.70;98.20;;;;;;5030708;28;20423;-44
2023/12/19 04:11:47;;;;;;;4.13;2.78;;;10.70;98.20;;;;;;5031842;28;20056;-44
2023/12/19 04:14:14;;;;;;;4.18;2.40;;;10.70;98.20;;;;;;5031633;28;20040;-42
2023/12/19 04:16:39;;;;;;;3.85;2.53;;;10.70;98.20;;;;;;5031742;28;20034;-43
2023/12/19 04:19:05;;;;;;;3.80;2.47;;;10.70;98.20;;;;;;5031686;28;20029;-44
2023/12/19 04:21:31;;;;;;;4.68;2.45;;;10.70;98.20;;;;;;5031515;28;20029;-42
2023/12/19 04:23:56;;;;;;;4.05;2.38;;;10.70;98.20;;;;;;5031546;28;20040;-44
2023/12/19 04:26:22;;;;;;;2.72;2.08;;;10.70;98.20;;;;;;5031329;28;20567;-44
2023/12/19 04:28:47;;;;;;;2.95;2.05;;;10.70;98.50;;;;;;5031406;28;20059;-44
2023/12/19 04:31:13;;;;;;;3.95;2.35;;;10.70;98.20;;;;;;5031419;28;20056;-40
2023/12/19 04:33:39;;;;;;;3.58;2.45;;;10.70;98.20;;;;;;5031507;28;20411;-44
2023/12/19 04:36:09;;;;;;;3.20;2.50;;;10.70;98.20;;;;;;5031422;28;20491;-44
2023/12/19 04:38:36;;;;;;;3.75;2.65;;;10.70;98.20;;;;;;5030592;28;20032;-42
2023/12/19 04:41:01;;;;;;;3.55;2.22;;;10.70;98.20;;;;;;5031111;28;20029;-44
2023/12/19 04:43:27;;;;;;;4.30;2.17;;;10.70;98.20;;;;;;5031634;28;20113;-44
2023/12/19 04:45:53;;;;;;;3.42;2.08;;;10.60;98.20;;;;;;5032133;28;20036;-43
2023/12/19 04:48:18;;;;;;;3.30;2.10;;;10.70;98.20;;;;;;5031839;28;20056;-44
2023/12/19 04:50:44;;;;;;;3.38;1.95;;;10.70;98.20;;;;;;5031292;28;20037;-44
2023/12/19 04:53:09;;;;;;;3.55;2.25;;;10.60;98.20;;;;;;5031309;28;20097;-41
2023/12/19 04:55:35;;;;;;;3.42;2.22;;;10.70;98.20;;;;;;5031024;28;20136;-44
2023/12/19 04:58:02;;;;;;;3.42;2.10;;;10.60;98.20;;;;;;5031512;28;20515;-44
2023/12/19 05:00:28;;;;;;;3.95;1.95;;;10.60;98.20;;;;;;5031367;28;20104;-44
2023/12/19 05:02:54;;;;;;;2.03;1.70;;;10.60;98.20;;;;;;5031243;28;20168;-44
2023/12/19 05:05:20;;;;;;;3.40;2.40;;;10.60;98.20;;;;;;5031162;28;20558;-44
2023/12/19 05:07:46;;;;;;;3.53;2.03;;;10.60;98.20;;;;;;5030976;28;20479;-44
2023/12/19 05:10:12;;;;;;;3.40;2.30;;;10.60;98.20;;;;;;5030876;28;20083;-44
2023/12/19 05:12:38;;;;;;;2.45;1.67;;;10.60;98.20;;;;;;5031255;28;20029;-44
2023/12/19 05:15:04;;;;;;;3.75;1.90;;;10.60;98.20;;;;;;5031034;28;20033;-44
2023/12/19 05:17:30;;;;;;;2.83;1.90;;;10.60;98.20;;;;;;5030967;28;20278;-44
2023/12/19 05:19:56;;;;;;;4.30;2.10;;;10.60;98.20;;;;;;5031120;28;20390;-44
2023/12/19 05:22:22;;;;;;;2.83;2.00;;;10.60;98.20;;;;;;5030818;28;20057;-43
2023/12/19 05:24:47;;;;;;;3.22;2.17;;;10.60;98.20;;;;;;5030842;28;20017;-44
2023/12/19 05:27:13;;;;;;;3.00;1.92;;;10.60;98.20;;;;;;5030926;28;20017;-44
2023/12/19 05:29:39;;;;;;;2.72;2.00;;;10.60;98.20;;;;;;5030826;28;20060;-44
2023/12/19 05:32:05;;;;;;;2.67;2.05;;;10.60;98.20;;;;;;5031611;28;20041;-44
2023/12/19 05:34:31;;;;;;;3.47;2.20;;;10.60;98.20;;;;;;5030832;28;20449;-44
2023/12/19 05:36:58;;;;;;;3.85;2.20;;;10.60;98.20;;;;;;5030773;28;20500;-43
2023/12/19 05:39:23;;;;;;;3.50;2.08;;;10.60;98.50;;;;;;5030612;28;20030;-43
2023/12/19 05:41:51;;;;;;;3.28;2.40;;;10.50;98.10;;;;;;5030648;28;20056;-44
2023/12/19 05:44:17;;;;;;;2.78;1.83;;;10.60;98.20;;;;;;5031001;28;20453;-44
2023/12/19 05:46:43;;;;;;;3.35;2.13;;;10.50;98.10;;;;;;5030785;28;20032;-44
2023/12/19 05:49:09;;;;;;;2.13;1.67;;;10.50;98.10;;;;;;5031723;28;20091;-44
2023/12/19 05:51:39;;;;;;;3.40;2.30;;;10.50;98.10;;;;;;5034560;28;20025;-42
2023/12/19 05:54:05;;;;;;;2.58;1.90;;;10.50;98.10;;;;;;5034937;28;20040;-44
2023/12/19 05:56:32;;;;;;;3.45;1.90;;;10.50;98.10;;;;;;5034545;28;20518;-44
2023/12/19 05:58:57;;;;;;;3.60;2.08;;;10.50;98.20;;;;;;5034195;28;20033;-42
2023/12/19 06:01:23;;;;;;;2.10;1.70;;;10.50;98.10;;;;;;5034086;28;20033;-41
2023/12/19 06:03:49;;;;;;;2.97;2.30;;;10.50;98.10;;;;;;5034238;28;20029;-44
2023/12/19 06:06:15;;;;;;;2.95;2.00;;;10.50;98.10;;;;;;5034065;28;20392;-44
2023/12/19 06:08:42;;;;;;;3.67;2.22;;;10.50;98.10;;;;;;5032521;28;20371;-44
2023/12/19 06:11:08;;;;;;;3.03;2.00;;;10.50;98.10;;;;;;5034043;28;20490;-44
2023/12/19 06:13:34;;;;;;;3.53;1.92;;;10.50;98.10;;;;;;5034023;28;20034;-44
2023/12/19 06:16:00;;;;;;;3.90;2.30;;;10.50;98.10;;;;;;5033908;28;20079;-44
2023/12/19 06:18:25;;;;;;;2.90;1.85;;;10.50;98.10;;;;;;5033845;28;20049;-44
2023/12/19 06:20:51;;;;;;;2.85;2.20;;;10.50;98.10;;;;;;5033828;28;20492;-44
2023/12/19 06:23:17;;;;;;;3.00;2.00;;;10.50;98.10;;;;;;5033611;28;20056;-44
2023/12/19 06:25:42;;;;;;;3.40;2.10;;;10.50;98.10;;;;;;5033735;28;20025;-44
2023/12/19 06:28:08;;;;;;;3.38;2.30;;;10.50;98.10;;;;;;5033725;28;20033;-44
2023/12/19 06:30:34;;;;;;;2.58;1.88;;;10.50;98.10;;;;;;5033683;28;20105;-44
2023/12/19 06:33:00;;;;;;;3.28;2.30;;;10.50;98.10;;;;;;5033912;28;20121;-44
2023/12/19 06:35:28;;;;;;;3.20;2.20;;;10.50;98.10;;;;;;5033621;28;20535;-44
2023/12/19 06:37:54;;;;;;;2.63;2.10;;;10.50;98.10;;;;;;5033757;28;20075;-43
2023/12/19 06:40:20;;;;;;;3.08;2.17;;;10.50;98.10;;;;;;5033425;28;20025;-44
2023/12/19 06:42:47;;;;;;;3.90;2.22;;;10.50;98.10;;;;;;5033901;28;20030;-44
2023/12/19 06:45:13;;;;;;;4.05;1.90;;;10.50;98.40;;;;;;5033651;28;20028;-44
2023/12/19 06:47:39;;;;;;;3.25;2.20;;;10.40;98.10;;;;;;5033254;28;20101;-43
2023/12/19 06:50:05;;;;;;;3.67;2.30;;;10.40;98.10;;;;;;5033287;28;20022;-44
2023/12/19 06:52:31;;;;;;;3.08;2.08;;;10.50;98.10;;;;;;5033166;28;20027;-44
2023/12/19 06:54:56;;;;;;;3.13;2.30;;;10.40;98.10;;;;;;5033377;28;20025;-44
2023/12/19 06:57:22;;;;;;;3.63;2.25;;;10.50;98.10;;;;;;5033146;28;20106;-44
2023/12/19 06:59:47;;;;;;;2.90;2.28;;;10.40;98.10;;;;;;5033144;28;20108;-44
2023/12/19 07:02:13;;;;;;;4.43;2.78;;;10.40;98.10;;;;;;5032268;28;20041;-44
2023/12/19 07:04:39;;;;;;;4.80;2.47;;;10.40;98.10;;;;;;5033218;28;20021;-43
2023/12/19 07:07:04;;;;;;;3.38;2.47;;;10.40;98.10;;;;;;5033051;28;20013;-43
2023/12/19 07:09:30;;;;;;;3.42;2.53;;;10.40;98.10;;;;;;5033149;28;20029;-43
2023/12/19 07:11:57;;;;;;;3.08;2.30;;;10.40;98.10;;;;;;5033307;28;20036;-44
2023/12/19 07:14:23;;;;;;;3.40;2.63;;;10.40;98.10;;;;;;5033105;28;20029;-43
2023/12/19 07:16:48;;;;;;;3.72;2.47;;;10.40;98.10;;;;;;5032850;28;20025;-44
2023/12/19 07:19:14;;;;;;;3.60;2.53;;;10.40;98.10;;;;;;5032725;28;20105;-44
2023/12/19 07:21:39;;;;;;;3.25;2.30;;;10.40;98.10;;;;;;5032527;28;20400;-44
2023/12/19 07:24:05;;;;;;;3.13;2.35;;;10.40;98.10;;;;;;5032604;28;20038;-44
2023/12/19 07:26:31;;;;;;;3.97;2.60;;;10.40;98.10;;;;;;5032926;28;20467;-44
2023/12/19 07:28:57;;;;;;;5.47;2.70;;;10.40;98.10;;;;;;5032655;28;20029;-43
2023/12/19 07:31:25;;;;;;;3.83;2.90;;;10.40;98.10;;;;;;5032538;28;20108;-44
2023/12/19 07:33:54;;;;;;;4.78;2.95;;;10.40;98.10;;;;;;5032602;28;20521;-44
2023/12/19 07:36:20;;;;;;;5.32;2.78;;;10.40;98.10;;;;;;5032458;28;20116;-43
2023/12/19 07:38:46;;;;;;;6.60;3.17;;;10.50;98.10;;;;;;5032628;28;20104;-44
2023/12/19 07:41:11;;;;;;;5.05;2.72;;;10.50;98.10;;;;;;5030948;28;20112;-44
2023/12/19 07:43:37;;;;;;;5.30;3.00;;;10.50;98.10;;;;;;5032463;28;20064;-44
2023/12/19 07:46:06;;;;;;;4.88;3.65;;;10.50;98.00;;;;;;5032383;28;20506;-44
2023/12/19 07:48:34;;;;;;;4.65;3.30;;;10.60;98.00;;;;;;5033167;28;20104;-44
2023/12/19 07:50:59;;;;;;;4.63;2.90;;;10.60;98.00;;;;;;5032122;28;20026;-44
2023/12/19 07:53:26;;;;;;;4.82;3.20;;;10.60;97.90;;;;;;5032215;28;20028;-44
2023/12/19 07:55:52;;;;;;;6.38;3.42;;;10.70;97.90;;;;;;5032695;28;20064;-44
2023/12/19 07:58:17;;;;;;;5.85;3.13;;;10.80;97.90;;;;;;5032036;28;20049;-43
2023/12/19 08:00:43;;;;;;;5.18;3.20;;;10.80;97.80;;;;;;5032064;28;20029;-44
2023/12/19 08:03:09;;;;;;;4.95;3.33;;;10.90;97.70;;;;;;5032209;28;20029;-44
2023/12/19 08:05:34;;;;;;;5.07;3.13;;;11.00;97.60;;;;;;5031920;28;20075;-44
2023/12/19 08:08:00;;;;;;;4.72;3.08;;;11.00;97.60;;;;;;5031790;28;20056;-44
2023/12/19 08:10:26;;;;;;;5.60;3.28;;;11.20;97.50;;;;;;5032102;28;20026;-44
2023/12/19 08:12:52;;;;;;;5.75;3.20;;;11.20;97.40;;;;;;5031958;28;20022;-44
2023/12/19 08:15:18;;;;;;;5.22;3.28;;;11.30;97.40;;;;;;5031863;28;20026;-44
2023/12/19 08:17:44;;;;;;;4.75;3.10;;;11.40;97.30;;;;;;5031497;28;20416;-44
2023/12/19 08:20:15;;;;;;;6.13;3.45;;;11.50;97.20;;;;;;5031830;28;20030;-44
2023/12/19 08:22:41;;;;;;;4.55;3.05;;;11.60;97.20;;;;;;5031826;28;20475;-44
2023/12/19 08:25:08;;;;;;;4.90;3.13;;;11.70;97.10;;;;;;5031896;28;20120;-44
2023/12/19 08:27:35;;;;;;;5.15;3.30;;;11.80;97.00;;;;;;5031742;28;20426;-44
2023/12/19 08:30:04;;;;;;;5.13;3.13;;;11.90;96.90;;;;;;5031625;28;20036;-44
2023/12/19 08:32:30;;;;;;;4.90;3.20;;;12.10;96.80;;;;;;5031437;28;20104;-44
2023/12/19 08:34:58;;;;;;;4.97;3.15;;;12.20;96.80;;;;;;5031506;28;20031;-44
2023/12/19 08:37:24;;;;;;;4.03;2.90;;;12.30;96.60;;;;;;5031593;28;20422;-43
2023/12/19 08:39:54;;;;;;;4.70;3.40;;;12.40;96.50;;;;;;5031458;28;20033;-44
2023/12/19 08:42:20;;;;;;;5.05;3.50;;;12.50;96.40;;;;;;5031323;28;20383;-44
2023/12/19 08:44:46;;;;;;;4.65;3.38;;;12.60;96.30;;;;;;5031399;28;20043;-44
2023/12/19 08:47:12;;;;;;;7.28;4.53;;;12.70;96.20;;;;;;5031633;28;20025;-44
2023/12/19 08:49:43;;;;;;;5.57;3.90;;;12.80;96.10;;;;;;5031341;28;20022;-43
2023/12/19 08:52:12;;;;;;;6.13;3.70;;;12.90;96.00;;;;;;5031545;28;20021;-44
2023/12/19 08:54:38;;;;;;;6.55;4.20;;;13.00;95.90;;;;;;5031265;28;20022;-44
2023/12/19 08:57:07;;;;;;;5.20;3.58;;;13.10;95.80;;;;;;5031126;28;20029;-43
2023/12/19 08:59:32;;;;;;;6.30;3.67;;;13.30;95.70;;;;;;5031010;28;20493;-44
2023/12/19 09:01:58;;;;;;;6.82;3.88;;;13.30;95.50;;;;;;5031085;28;20021;-44
2023/12/19 09:04:24;;;;;;;5.75;3.92;;;13.40;95.40;;;;;;5031132;28;20060;-44
2023/12/19 09:06:50;;;;;;;5.88;3.67;;;13.50;95.30;;;;;;5031145;28;20017;-44
2023/12/19 09:09:16;;;;;;;5.18;3.40;;;13.60;95.20;;;;;;5031486;28;20030;-44
2023/12/19 09:11:42;;;;;;;5.03;3.55;;;13.70;95.10;;;;;;5031568;28;20033;-44
2023/12/19 09:14:11;;;;;;;5.40;3.40;;;13.80;95.00;;;;;;5031223;28;20408;-44
2023/12/19 09:16:37;;;;;;;5.50;3.40;;;13.90;94.90;;;;;;5031545;28;20026;-43
2023/12/19 09:19:03;;;;;;;5.30;3.33;;;14.00;94.90;;;;;;5030980;28;20109;-44
2023/12/19 09:21:29;;;;;;;4.45;3.17;;;14.10;94.80;;;;;;5031061;28;20502;-45
2023/12/19 09:23:54;;;;;;;5.13;3.33;;;14.20;94.70;;;;;;5031685;28;20480;-41
2023/12/19 09:26:20;;;;;;;4.30;3.10;;;14.20;95.00;;;;;;5034858;28;20084;-43
2023/12/19 09:28:46;;;;;;;4.40;3.30;;;14.40;94.60;;;;;;5034768;28;20430;-44
2023/12/19 09:31:11;;;;;;;5.50;3.35;;;14.40;94.40;;;;;;5034788;28;20021;-44
2023/12/19 09:33:38;;;;;;;3.95;2.90;;;14.50;94.70;;;;;;5034784;28;20052;-43
2023/12/19 09:36:08;;;;;;;4.75;3.17;;;14.60;94.30;;;;;;5034721;28;20029;-43
2023/12/19 09:38:35;;;;;;;5.47;3.33;;;14.70;94.20;;;;;;5034624;28;20036;-44
2023/12/19 09:41:02;;;;;;;5.25;3.22;;;14.80;94.20;;;;;;5035052;28;20052;-44
2023/12/19 09:43:31;;;;;;;4.90;3.25;;;14.90;94.10;;;;;;5035306;28;20026;-43
2023/12/19 09:46:02;;;;;;;4.00;2.70;;;14.90;94.00;;;;;;5034925;28;20017;-44
2023/12/19 09:48:33;;;;;;;4.20;3.05;;;15.00;93.90;;;;;;5034635;28;20032;-44
2023/12/19 09:51:03;;;;;;;4.00;3.08;;;15.10;93.80;;;;;;5034751;28;20029;-44
2023/12/19 09:53:33;;;;;;;4.72;3.05;;;15.20;93.70;;;;;;5034387;28;20084;-44
2023/12/19 09:56:00;;;;;;;3.75;2.88;;;15.30;93.60;;;;;;5034301;28;20033;-44
2023/12/19 09:58:31;;;;;;;4.15;3.00;;;15.40;93.60;;;;;;5034302;28;20025;-44
2023/12/19 10:01:00;;;;;;;5.35;3.50;;;15.40;93.50;;;;;;5034226;28;20021;-44
2023/12/19 10:03:29;;;;;;;5.35;3.08;;;15.40;93.40;;;;;;5034227;28;20025;-44
2023/12/19 10:05:56;;;;;;;5.68;3.40;;;15.40;93.30;;;;;;5034576;28;20024;-44
2023/12/19 10:08:22;;;;;;;4.65;3.00;;;15.50;93.30;;;;;;5034014;28;20043;-44
2023/12/19 10:10:55;;;;;;;4.68;3.22;;;15.50;93.20;;;;;;5034380;28;20487;-43
2023/12/19 10:13:31;;;;;;;4.40;3.13;;;15.60;93.10;;;;;;5034434;28;20381;-44
2023/12/19 10:16:08;;;;;;;3.88;2.63;;;15.60;93.10;;;;;;5033932;28;20515;-44
2023/12/19 10:18:35;;;;;;;3.90;2.83;;;15.60;93.00;;;;;;5033918;28;20021;-43
2023/12/19 10:21:14;;;;;;;4.80;2.78;;;15.60;92.90;;;;;;5034198;28;20029;-43
2023/12/19 10:23:43;;;;;;;4.05;2.88;;;15.70;92.90;;;;;;5033998;28;20498;-44
2023/12/19 10:26:10;;;;;;;4.00;2.83;;;15.70;93.20;;;;;;5033986;28;20092;-44
2023/12/19 10:28:37;;;;;;;5.05;2.70;;;15.70;92.70;;;;;;5033761;28;20021;-43
2023/12/19 10:31:06;;;;;;;4.40;3.05;;;15.70;92.70;;;;;;5033753;28;20022;-44
2023/12/19 10:33:51;;;;;;;4.25;2.70;;;15.70;92.60;;;;;;5033522;28;20109;-44
2023/12/19 10:36:24;;;;;;;3.90;2.83;;;15.70;92.60;;;;;;5032387;28;20030;-44
2023/12/19 10:38:50;;;;;;;7.22;2.97;;;15.70;92.60;;;;;;5033859;28;20025;-44
2023/12/19 10:41:31;;;;;;;4.72;3.22;;;15.70;92.50;;;;;;5033454;28;20032;-44
2023/12/19 10:43:58;;;;;;;3.83;2.88;;;15.70;92.50;;;;;;5033922;28;20025;-44
2023/12/19 10:46:27;;;;;;;4.47;2.85;;;15.70;92.50;;;;;;5033486;28;20132;-43
2023/12/19 10:48:54;;;;;;;4.47;2.80;;;15.70;92.40;;;;;;5033357;28;20021;-44
2023/12/19 10:51:42;;;;;;;4.53;2.90;;;15.70;92.40;;;;;;5033372;28;20049;-44
2023/12/19 10:54:10;;;;;;;3.80;3.00;;;15.70;92.40;;;;;;5033323;28;20026;-44
2023/12/19 10:57:00;;;;;;;3.47;2.55;;;15.70;92.40;;;;;;5033256;28;20017;-44
2023/12/19 11:00:09;;;;;;;4.43;3.03;;;15.70;92.30;;;;;;5033357;28;20048;-44
2023/12/19 11:02:46;;;;;;;4.25;2.78;;;15.70;92.30;;;;;;5022466;28;20121;-44
2023/12/19 11:05:41;;;;;;;4.82;2.53;;;15.70;92.30;;;;;;5033156;28;20547;-42
2023/12/19 11:08:18;;;;;;;5.47;3.13;;;15.60;92.30;;;;;;5033053;28;20147;-43
2023/12/19 11:11:09;;;;;;;4.75;3.50;;;15.60;92.30;;;;;;5032807;28;20065;-44
2023/12/19 11:13:35;;;;;;;3.67;3.03;;;15.60;92.20;;;;;;5033160;28;20040;-44
2023/12/19 11:16:16;;;;;;;4.45;3.15;;;15.60;92.30;;;;;;5033080;28;20033;-44
2023/12/19 11:18:55;;;;;;;3.78;2.72;;;15.60;92.30;;;;;;5033230;28;20151;-43
2023/12/19 11:21:32;;;;;;;3.50;2.63;;;15.60;92.30;;;;;;5032781;28;20033;-44
2023/12/19 11:24:11;;;;;;;4.10;2.55;;;15.60;92.30;;;;;;5032678;28;20036;-44
2023/12/19 11:27:05;;;;;;;4.38;3.00;;;15.60;92.40;;;;;;5032844;28;20021;-44
2023/12/19 11:29:45;;;;;;;4.28;2.95;;;15.60;92.40;;;;;;5028452;28;20499;-43
2023/12/19 11:32:29;;;;;;;4.45;3.20;;;15.60;92.40;;;;;;5032528;28;20032;-44
2023/12/19 11:35:09;;;;;;;3.83;2.70;;;15.60;92.40;;;;;;5032526;28;20411;-43
2023/12/19 11:37:36;;;;;;;3.90;2.95;;;15.60;92.40;;;;;;5032296;28;20033;-43
2023/12/19 11:40:08;;;;;;;3.60;2.65;;;15.70;92.40;;;;;;5032605;28;20040;-44
2023/12/19 11:42:40;;;;;;;4.40;3.10;;;15.60;92.70;;;;;;5032291;28;20028;-44
2023/12/19 11:45:17;;;;;;;4.22;3.00;;;15.70;92.40;;;;;;5032374;28;20055;-44
2023/12/19 11:47:50;;;;;;;3.40;2.67;;;15.70;92.30;;;;;;5032042;28;20033;-43
2023/12/19 11:50:40;;;;;;;4.10;2.78;;;15.70;92.30;;;;;;5032316;28;20030;-41
2023/12/19 11:53:06;;;;;;;4.03;2.70;;;15.70;92.30;;;;;;5032380;28;20029;-44
2023/12/19 11:55:32;;;;;;;4.88;3.28;;;15.70;92.20;;;;;;5032439;28;20026;-44
2023/12/19 11:58:11;;;;;;;5.93;3.47;;;15.70;92.20;;;;;;5031955;28;20040;-44
2023/12/19 12:00:37;;;;;;;3.88;2.70;;;15.70;92.20;;;;;;5031750;28;20053;-44
2023/12/19 12:03:09;;;;;;;4.00;3.08;;;15.70;92.10;;;;;;5030740;28;20057;-43
2023/12/19 12:05:36;;;;;;;4.35;2.80;;;15.70;92.10;;;;;;5032149;28;20026;-44
2023/12/19 12:08:03;;;;;;;3.58;3.05;;;15.70;92.10;;;;;;5032131;28;20025;-44
2023/12/19 12:10:29;;;;;;;4.80;2.90;;;15.70;92.10;;;;;;5032325;28;20162;-44
2023/12/19 12:12:56;;;;;;;5.30;2.92;;;15.70;92.00;;;;;;5032046;28;20476;-44
2023/12/19 12:15:23;;;;;;;4.28;3.08;;;15.70;92.00;;;;;;5032361;28;20522;-44
2023/12/19 12:17:50;;;;;;;4.65;3.50;;;15.70;92.00;;;;;;5031678;28;20099;-44
2023/12/19 12:20:24;;;;;;;3.80;2.78;;;15.70;92.00;;;;;;5032132;28;20075;-44
2023/12/19 12:22:52;;;;;;;4.07;3.13;;;15.70;92.00;;;;;;5030322;28;20025;-44
2023/12/19 12:25:19;;;;;;;4.47;3.10;;;15.60;92.00;;;;;;5031636;28;20075;-44
2023/12/19 12:27:45;;;;;;;4.32;3.30;;;15.60;92.00;;;;;;5031642;28;20021;-44
2023/12/19 12:30:11;;;;;;;5.18;3.30;;;15.60;92.00;;;;;;5031491;28;20018;-44
2023/12/19 12:32:39;;;;;;;4.03;2.90;;;15.60;92.00;;;;;;5031709;28;20399;-44
2023/12/19 12:35:28;;;;;;;3.83;2.80;;;15.60;92.00;;;;;;5031559;28;20109;-44
2023/12/19 12:38:17;;;;;;;4.35;3.25;;;15.60;92.00;;;;;;5031357;28;20469;-44
2023/12/19 12:40:54;;;;;;;4.45;3.25;;;15.60;92.00;;;;;;5031357;28;20485;-44
2023/12/19 12:43:33;;;;;;;4.50;3.10;;;15.50;91.90;;;;;;5031706;28;20044;-44
2023/12/19 12:46:12;;;;;;;4.38;3.17;;;15.50;91.90;;;;;;5031239;28;20053;-44
2023/12/19 12:49:00;;;;;;;5.13;3.42;;;15.50;92.00;;;;;;5031276;28;20041;-44
2023/12/19 12:51:26;;;;;;;5.38;4.10;;;15.50;92.00;;;;;;5031267;28;20109;-43